createdAt,value
2022-11-09T00:02:58.017Z,4.05
2022-11-09T00:04:59.160Z,4.05
2022-11-09T00:07:00.298Z,4.05
2022-11-09T00:09:07.000Z,4.05
2022-11-09T00:11:03.009Z,4.05
2022-11-09T00:13:04.868Z,4.05
2022-11-09T00:15:06.539Z,4.05
2022-11-09T00:19:08.680Z,4.05
2022-11-09T00:21:10.395Z,4.05
2022-11-09T00:23:11.622Z,4.05
2022-11-09T00:25:12.687Z,4.05
2022-11-09T00:27:17.426Z,4.05
2022-11-09T00:29:15.089Z,4.05
2022-11-09T00:31:16.392Z,4.05
2022-11-09T00:35:18.842Z,4.05
2022-11-09T00:40:22.632Z,4.05
2022-11-09T00:42:23.783Z,4.05
2022-11-09T00:46:26.642Z,4.05
2022-11-09T00:48:27.968Z,4.04
2022-11-09T00:50:29.770Z,4.05
2022-11-09T00:52:30.892Z,4.05
2022-11-09T00:56:34.097Z,4.05
2022-11-09T00:58:35.635Z,4.05
2022-11-09T01:00:37.481Z,4.04
2022-11-09T01:02:38.846Z,4.05
2022-11-09T01:04:39.835Z,4.05
2022-11-09T01:06:41.382Z,4.04
2022-11-09T01:08:42.707Z,4.04
2022-11-09T01:12:45.238Z,4.04
2022-11-09T01:14:47.126Z,4.04
2022-11-09T01:16:48.024Z,4.04
2022-11-09T01:18:49.759Z,4.04
2022-11-09T01:20:50.899Z,4.04
2022-11-09T01:22:52.757Z,4.04
2022-11-09T01:24:54.416Z,4.04
2022-11-09T01:28:57.470Z,4.04
2022-11-09T01:30:59.001Z,4.04
2022-11-09T01:33:00.825Z,4.04
2022-11-09T01:35:02.731Z,4.04
2022-11-09T01:39:05.413Z,4.04
2022-11-09T01:41:06.416Z,4.04
2022-11-09T01:45:09.985Z,4.04
2022-11-09T01:47:11.385Z,4.04
2022-11-09T01:49:12.468Z,4.04
2022-11-09T01:51:14.068Z,4.04
2022-11-09T01:55:17.648Z,4.04
2022-11-09T01:57:19.186Z,4.04
2022-11-09T01:59:20.251Z,4.04
2022-11-09T02:01:21.419Z,4.04
2022-11-09T02:03:23.157Z,4.04
2022-11-09T02:05:24.390Z,4.04
2022-11-09T02:07:25.651Z,4.03
2022-11-09T02:11:28.322Z,4.04
2022-11-09T02:13:29.695Z,4.04
2022-11-09T02:15:31.120Z,4.04
2022-11-09T02:17:32.418Z,4.04
2022-11-09T02:21:35.209Z,4.03
2022-11-09T02:23:36.628Z,4.03
2022-11-09T02:25:38.327Z,4.03
2022-11-09T02:27:39.774Z,4.03
2022-11-09T02:29:41.458Z,4.03
2022-11-09T02:31:42.638Z,4.03
2022-11-09T02:33:43.872Z,4.03
2022-11-09T02:37:47.461Z,4.03
2022-11-09T02:39:49.341Z,4.03
2022-11-09T02:43:52.267Z,4.03
2022-11-09T02:45:53.796Z,4.03
2022-11-09T02:47:55.449Z,4.03
2022-11-09T02:49:57.145Z,4.03
2022-11-09T02:53:59.972Z,4.03
2022-11-09T02:56:01.484Z,4.03
2022-11-09T02:58:03.403Z,4.03
2022-11-09T03:00:04.886Z,4.03
2022-11-09T03:04:06.978Z,4.03
2022-11-09T03:06:08.571Z,4.03
2022-11-09T03:08:09.743Z,4.03
2022-11-09T03:10:10.923Z,4.03
2022-11-09T03:12:11.985Z,4.02
2022-11-09T03:14:13.689Z,4.03
2022-11-09T03:16:15.094Z,4.03
2022-11-09T03:20:17.174Z,4.03
2022-11-09T03:22:18.565Z,4.02
2022-11-09T03:24:20.261Z,4.02
2022-11-09T03:26:21.774Z,4.02
2022-11-09T03:28:23.116Z,4.02
2022-11-09T03:30:24.305Z,4.02
2022-11-09T03:32:26.133Z,4.03
2022-11-09T03:36:29.387Z,4.02
2022-11-09T03:38:30.992Z,4.02
2022-11-09T03:40:32.187Z,4.02
2022-11-09T03:42:33.325Z,4.02
2022-11-09T03:44:35.103Z,4.02
2022-11-09T03:46:36.754Z,4.02
2022-11-09T03:48:38.352Z,4.02
2022-11-09T03:52:40.817Z,4.02
2022-11-09T03:54:42.266Z,4.02
2022-11-09T03:56:43.593Z,4.02
2022-11-09T03:58:45.240Z,4.02
2022-11-09T04:02:48.804Z,4.02
2022-11-09T04:04:49.968Z,4.02
2022-11-09T04:08:53.316Z,4.02
2022-11-09T04:10:55.184Z,4.02
2022-11-09T04:12:56.878Z,4.02
2022-11-09T04:14:58.234Z,4.02
2022-11-09T04:19:01.379Z,4.02
2022-11-09T04:21:02.853Z,4.02
2022-11-09T04:23:04.059Z,4.02
2022-11-09T04:25:05.296Z,4.02
2022-11-09T04:27:07.033Z,4.02
2022-11-09T04:29:08.645Z,4.02
2022-11-09T04:31:09.718Z,4.01
2022-11-09T04:35:13.075Z,4.01
2022-11-09T04:37:14.291Z,4.02
2022-11-09T04:39:15.790Z,4.02
2022-11-09T04:41:17.104Z,4.01
2022-11-09T04:45:19.726Z,4.01
2022-11-09T04:47:20.790Z,4.01
2022-11-09T04:51:23.623Z,4.01
2022-11-09T04:53:25.251Z,4.01
2022-11-09T04:55:26.515Z,4.01
2022-11-09T04:57:27.838Z,4.01
2022-11-09T05:01:29.927Z,4.01
2022-11-09T05:03:31.186Z,4.01
2022-11-09T05:07:34.170Z,4.01
2022-11-09T05:09:36.062Z,4.01
2022-11-09T05:11:37.405Z,4.01
2022-11-09T05:13:38.886Z,4.01
2022-11-09T05:17:42.438Z,4.01
2022-11-09T05:19:44.268Z,4
2022-11-09T05:21:45.993Z,4.01
2022-11-09T05:23:47.251Z,4.01
2022-11-09T05:27:49.745Z,4.01
2022-11-09T05:29:51.063Z,4.01
2022-11-09T05:31:52.746Z,4
2022-11-09T05:33:54.215Z,4.01
2022-11-09T05:35:55.390Z,4
2022-11-09T05:37:56.944Z,4
2022-11-09T05:39:58.387Z,4
2022-11-09T05:44:01.226Z,4.01
2022-11-09T05:46:06.517Z,4
2022-11-09T05:50:05.898Z,4
2022-11-09T05:52:07.473Z,4
2022-11-09T05:54:09.139Z,4
2022-11-09T05:56:10.270Z,4
2022-11-09T06:00:12.312Z,4
2022-11-09T06:02:13.415Z,4
2022-11-09T06:04:14.711Z,4
2022-11-09T06:06:16.182Z,4
2022-11-09T06:08:17.265Z,4
2022-11-09T06:10:19.060Z,4
2022-11-09T06:12:20.398Z,4
2022-11-09T06:16:23.832Z,4
2022-11-09T06:18:25.613Z,4
2022-11-09T06:20:26.692Z,4
2022-11-09T06:22:28.150Z,4
2022-11-09T06:26:31.013Z,4
2022-11-09T06:28:32.068Z,4
2022-11-09T06:30:33.926Z,4
2022-11-09T06:32:35.447Z,4
2022-11-09T06:34:37.020Z,4
2022-11-09T06:36:38.229Z,4
2022-11-09T06:38:39.874Z,4
2022-11-09T06:42:42.965Z,4
2022-11-09T06:44:43.938Z,3.99
2022-11-09T06:46:45.100Z,4
2022-11-09T06:48:48.356Z,4
2022-11-09T06:50:47.365Z,4
2022-11-09T06:52:48.618Z,3.99
2022-11-09T06:54:50.028Z,3.99
2022-11-09T06:58:52.118Z,3.99
2022-11-09T07:00:53.277Z,4
2022-11-09T07:02:54.757Z,3.99
2022-11-09T07:04:56.247Z,3.99
2022-11-09T07:06:58.301Z,3.99
2022-11-09T07:08:59.849Z,3.99
2022-11-09T07:11:00.902Z,3.99
2022-11-09T07:15:03.621Z,4
2022-11-09T07:17:05.066Z,3.99
2022-11-09T07:19:06.756Z,3.99
2022-11-09T07:21:12.958Z,3.99
2022-11-09T07:23:53.366Z,3.99
2022-11-09T07:25:54.753Z,3.99
2022-11-09T07:27:55.733Z,3.99
2022-11-09T07:29:57.583Z,3.99
2022-11-09T07:31:58.788Z,3.99
2022-11-09T07:36:01.188Z,3.99
2022-11-09T07:38:02.604Z,3.98
2022-11-09T07:40:04.105Z,3.98
2022-11-09T07:42:05.555Z,3.98
2022-11-09T07:46:08.692Z,3.99
2022-11-09T07:48:10.010Z,3.99
2022-11-09T07:50:11.339Z,3.99
2022-11-09T07:52:12.753Z,3.99
2022-11-09T07:54:13.823Z,3.98
2022-11-09T07:56:14.733Z,3.98
2022-11-09T07:58:15.932Z,3.99
2022-11-09T08:02:18.654Z,3.98
2022-11-09T08:04:20.153Z,3.98
2022-11-09T08:06:21.556Z,3.98
2022-11-09T08:08:22.467Z,3.98
2022-11-09T08:10:23.485Z,3.98
2022-11-09T08:12:25.183Z,3.98
2022-11-09T08:14:26.678Z,3.98
2022-11-09T08:18:30.035Z,3.98
2022-11-09T08:20:31.692Z,3.98
2022-11-09T08:22:32.663Z,3.98
2022-11-09T08:24:34.301Z,3.98
2022-11-09T08:26:35.443Z,3.98
2022-11-09T08:28:37.037Z,3.98
2022-11-09T08:30:38.495Z,3.98
2022-11-09T08:34:41.459Z,3.98
2022-11-09T08:36:42.563Z,3.98
2022-11-09T08:38:44.209Z,3.98
2022-11-09T08:40:45.850Z,3.98
2022-11-09T08:44:48.668Z,3.98
2022-11-09T08:46:50.497Z,3.98
2022-11-09T08:50:53.281Z,3.98
2022-11-09T08:52:54.483Z,3.98
2022-11-09T08:54:55.673Z,3.98
2022-11-09T08:56:57.512Z,3.98
2022-11-09T09:00:59.934Z,3.98
2022-11-09T09:03:01.480Z,3.98
2022-11-09T09:05:03.256Z,3.98
2022-11-09T09:07:04.618Z,3.98
2022-11-09T09:09:05.785Z,3.98
2022-11-09T09:11:07.235Z,3.98
2022-11-09T09:13:08.267Z,3.98
2022-11-09T09:17:11.105Z,3.98
2022-11-09T09:19:12.237Z,3.98
2022-11-09T09:21:13.651Z,3.98
2022-11-09T09:23:14.714Z,3.98
2022-11-09T09:27:17.028Z,3.98
2022-11-09T09:29:18.750Z,3.98
2022-11-09T09:31:20.375Z,3.98
2022-11-09T09:33:22.133Z,3.98
2022-11-09T09:35:23.095Z,3.98
2022-11-09T09:37:24.107Z,3.98
2022-11-09T09:39:25.129Z,3.98
2022-11-09T09:43:27.895Z,3.98
2022-11-09T09:45:29.448Z,3.98
2022-11-09T09:49:32.552Z,3.98
2022-11-09T09:51:34.249Z,3.98
2022-11-09T09:53:35.812Z,3.97
2022-11-09T09:55:36.959Z,3.98
2022-11-09T09:59:39.373Z,3.97
2022-11-09T10:01:40.535Z,3.97
2022-11-09T10:03:42.369Z,3.98
2022-11-09T10:05:43.622Z,3.98
2022-11-09T10:09:46.606Z,3.99
2022-11-09T10:11:48.179Z,3.99
2022-11-09T10:13:49.449Z,3.99
2022-11-09T10:15:50.640Z,4
2022-11-09T10:17:52.497Z,4
2022-11-09T10:19:54.091Z,4.01
2022-11-09T10:21:55.701Z,4.03
2022-11-09T10:26:04.117Z,4.04
2022-11-09T10:28:00.103Z,4.04
2022-11-09T10:32:02.646Z,4.04
2022-11-09T10:34:03.877Z,4.05
2022-11-09T10:36:08.137Z,4.06
2022-11-09T10:38:06.270Z,4.06
2022-11-09T10:40:08.369Z,4.06
2022-11-09T10:42:09.785Z,4.06
2022-11-09T10:44:16.226Z,4.07
2022-11-09T10:46:13.351Z,4.07
2022-11-09T10:48:14.669Z,4.07
2022-11-09T10:50:15.640Z,4.08
2022-11-09T10:52:17.071Z,4.08
2022-11-09T10:54:18.638Z,4.09
2022-11-09T10:58:21.161Z,4.09
2022-11-09T11:00:22.421Z,4.09
2022-11-09T11:02:23.926Z,4.1
2022-11-09T11:04:24.948Z,4.1
2022-11-09T11:08:26.981Z,4.1
2022-11-09T11:10:28.022Z,4.11
2022-11-09T11:14:30.404Z,4.12
2022-11-09T11:16:31.945Z,4.12
2022-11-09T11:18:33.241Z,4.12
2022-11-09T11:20:34.390Z,4.12
2022-11-09T11:24:37.038Z,4.13
2022-11-09T11:26:38.701Z,4.13
2022-11-09T11:28:39.514Z,4.13
2022-11-09T11:30:40.879Z,4.14
2022-11-09T11:32:45.566Z,4.14
2022-11-09T11:34:59.524Z,4.14
2022-11-09T11:36:46.821Z,4.14
2022-11-09T11:40:49.416Z,4.15
2022-11-09T11:42:51.061Z,4.15
2022-11-09T11:44:59.378Z,4.16
2022-11-09T11:46:54.439Z,4.16
2022-11-09T11:50:56.793Z,4.16
2022-11-09T11:52:57.694Z,4.16
2022-11-09T11:54:59.013Z,4.16
2022-11-09T11:57:00.775Z,4.17
2022-11-09T11:59:01.774Z,4.17
2022-11-09T12:01:02.700Z,4.17
2022-11-09T12:03:04.245Z,4.17
2022-11-09T12:07:06.794Z,4.17
2022-11-09T12:09:07.959Z,4.18
2022-11-09T12:13:10.393Z,4.18
2022-11-09T12:15:12.071Z,4.18
2022-11-09T12:17:13.120Z,4.18
2022-11-09T12:19:14.560Z,4.18
2022-11-09T12:23:17.580Z,4.19
2022-11-09T12:25:18.537Z,4.19
2022-11-09T12:27:31.911Z,4.19
2022-11-09T12:29:21.613Z,4.19
2022-11-09T12:31:22.584Z,4.19
2022-11-09T12:33:25.208Z,4.19
2022-11-09T12:35:25.332Z,4.19
2022-11-09T12:39:28.167Z,4.19
2022-11-09T12:41:29.096Z,4.19
2022-11-09T12:43:30.775Z,4.19
2022-11-09T12:45:32.128Z,4.19
2022-11-09T12:49:34.756Z,4.19
2022-11-09T12:51:35.883Z,4.19
2022-11-09T12:53:36.794Z,4.19
2022-11-09T12:55:38.015Z,4.2
2022-11-09T12:57:39.131Z,4.19
2022-11-09T12:59:40.434Z,4.2
2022-11-09T13:01:42.005Z,4.2
2022-11-09T13:05:44.415Z,4.2
2022-11-09T13:07:45.713Z,4.2
2022-11-09T13:09:47.449Z,4.2
2022-11-09T13:11:48.324Z,4.2
2022-11-09T13:13:49.360Z,4.19
2022-11-09T13:15:50.651Z,4.19
2022-11-09T13:17:51.584Z,4.19
2022-11-09T13:21:54.983Z,4.19
2022-11-09T13:24:01.870Z,4.18
2022-11-09T13:25:57.580Z,4.18
2022-11-09T13:27:58.446Z,4.18
2022-11-09T13:32:01.465Z,4.18
2022-11-09T13:34:03.315Z,4.18
2022-11-09T13:36:04.551Z,4.18
2022-11-09T13:38:09.723Z,4.18
2022-11-09T13:40:06.671Z,4.18
2022-11-09T13:42:07.650Z,4.18
2022-11-09T13:44:08.756Z,4.18
2022-11-09T13:48:10.940Z,4.17
2022-11-09T13:50:12.181Z,4.18
2022-11-09T13:54:14.901Z,4.17
2022-11-09T13:56:16.174Z,4.17
2022-11-09T13:58:17.555Z,4.17
2022-11-09T14:00:18.995Z,4.17
2022-11-09T14:04:21.360Z,4.17
2022-11-09T14:06:22.461Z,4.17
2022-11-09T14:08:24.157Z,4.17
2022-11-09T14:09:07.729Z,4.17
2022-11-09T14:11:09.494Z,4.17
2022-11-09T14:15:12.471Z,4.17
2022-11-09T14:17:13.588Z,4.17
2022-11-09T14:19:14.824Z,4.17
2022-11-09T14:21:15.635Z,4.17
2022-11-09T14:25:18.047Z,4.17
2022-11-09T14:27:19.313Z,4.17
2022-11-09T14:29:20.597Z,4.17
2022-11-09T14:31:22.339Z,4.17
2022-11-09T14:33:23.965Z,4.17
2022-11-09T14:35:25.467Z,4.17
2022-11-09T14:37:27.318Z,4.17
2022-11-09T14:41:30.470Z,4.17
2022-11-09T14:43:32.238Z,4.17
2022-11-09T14:45:33.395Z,4.17
2022-11-09T14:47:34.526Z,4.16
2022-11-09T14:49:35.727Z,4.17
2022-11-09T14:51:37.039Z,4.16
2022-11-09T14:53:38.035Z,4.16
2022-11-09T14:57:40.365Z,4.16
2022-11-09T14:59:41.438Z,4.16
2022-11-09T15:01:43.004Z,4.16
2022-11-09T15:03:44.630Z,4.16
2022-11-09T15:07:47.424Z,4.16
2022-11-09T15:09:48.683Z,4.16
2022-11-09T15:11:49.690Z,4.16
2022-11-09T15:13:51.424Z,4.16
2022-11-09T15:15:52.455Z,4.16
2022-11-09T15:17:54.159Z,4.16
2022-11-09T15:19:55.067Z,4.16
2022-11-09T15:23:58.675Z,4.16
2022-11-09T15:26:00.004Z,4.16
2022-11-09T15:30:02.467Z,4.16
2022-11-09T15:32:03.357Z,4.16
2022-11-09T15:34:04.272Z,4.16
2022-11-09T15:36:05.256Z,4.16
2022-11-09T15:40:07.965Z,4.16
2022-11-09T15:42:09.557Z,4.16
2022-11-09T15:44:11.408Z,4.16
2022-11-09T15:46:12.455Z,4.16
2022-11-09T15:50:14.906Z,4.16
2022-11-09T15:52:16.744Z,4.16
2022-11-09T15:56:19.951Z,4.16
2022-11-09T15:58:21.946Z,4.16
2022-11-09T16:00:23.474Z,4.15
2022-11-09T16:02:25.350Z,4.16
2022-11-09T16:06:28.267Z,4.16
2022-11-09T16:08:29.307Z,4.15
2022-11-09T16:10:30.656Z,4.15
2022-11-09T16:12:32.503Z,4.15
2022-11-09T16:14:33.886Z,4.15
2022-11-09T16:16:35.397Z,4.15
2022-11-09T16:18:37.162Z,4.15
2022-11-09T16:22:40.168Z,4.15
2022-11-09T16:24:41.906Z,4.15
2022-11-09T16:26:43.425Z,4.15
2022-11-09T16:28:44.434Z,4.15
2022-11-09T16:30:46.780Z,4.15
2022-11-09T16:32:46.781Z,4.15
2022-11-09T16:35:02.623Z,4.14
2022-11-09T16:38:51.021Z,4.15
2022-11-09T16:40:52.395Z,4.14
2022-11-09T16:42:53.462Z,4.14
2022-11-09T16:44:54.963Z,4.15
2022-11-09T16:48:58.197Z,4.14
2022-11-09T16:50:59.532Z,4.14
2022-11-09T16:53:01.425Z,4.14
2022-11-09T16:55:03.170Z,4.14
2022-11-09T16:57:04.621Z,4.14
2022-11-09T16:59:06.503Z,4.14
2022-11-09T17:01:12.660Z,4.14
2022-11-09T17:05:09.905Z,4.14
2022-11-09T17:07:10.868Z,4.14
2022-11-09T17:09:12.605Z,4.14
2022-11-09T17:11:14.357Z,4.14
2022-11-09T17:13:15.249Z,4.14
2022-11-09T17:15:16.186Z,4.14
2022-11-09T17:17:22.358Z,4.14
2022-11-09T17:21:19.968Z,4.14
2022-11-09T17:23:21.663Z,4.14
2022-11-09T17:25:23.501Z,4.14
2022-11-09T17:27:24.576Z,4.14
2022-11-09T17:31:27.406Z,4.14
2022-11-09T17:33:29.199Z,4.14
2022-11-09T17:35:30.637Z,4.14
2022-11-09T17:37:32.359Z,4.14
2022-11-09T17:39:33.781Z,4.14
2022-11-09T17:41:37.544Z,4.14
2022-11-09T17:43:36.076Z,4.14
2022-11-09T17:47:39.211Z,4.14
2022-11-09T17:49:40.890Z,4.14
2022-11-09T17:53:43.167Z,4.13
2022-11-09T17:55:44.661Z,4.13
2022-11-09T17:57:45.812Z,4.13
2022-11-09T17:59:47.697Z,4.14
2022-11-09T18:03:49.873Z,4.13
2022-11-09T18:05:51.178Z,4.13
2022-11-09T18:07:52.790Z,4.13
2022-11-09T18:09:54.061Z,4.13
2022-11-09T18:13:56.756Z,4.13
2022-11-09T18:15:58.487Z,4.13
2022-11-09T18:18:00.419Z,4.13
2022-11-09T18:20:01.640Z,4.13
2022-11-09T18:22:04.289Z,4.13
2022-11-09T18:26:05.628Z,4.13
2022-11-09T18:28:07.009Z,4.13
2022-11-09T18:30:08.739Z,4.13
2022-11-09T18:32:10.567Z,4.13
2022-11-09T18:36:12.981Z,4.13
2022-11-09T18:38:16.487Z,4.13
2022-11-09T18:40:16.371Z,4.13
2022-11-09T18:42:17.524Z,4.13
2022-11-09T18:44:18.713Z,4.12
2022-11-09T18:46:20.011Z,4.13
2022-11-09T18:48:22.044Z,4.12
2022-11-09T18:52:24.211Z,4.13
2022-11-09T18:54:25.925Z,4.12
2022-11-09T18:56:26.856Z,4.12
2022-11-09T18:58:28.731Z,4.12
2022-11-09T19:02:31.823Z,4.12
2022-11-09T19:04:33.346Z,4.12
2022-11-09T19:08:35.940Z,4.12
2022-11-09T19:10:37.705Z,4.12
2022-11-09T19:12:39.237Z,4.12
2022-11-09T19:14:40.370Z,4.12
2022-11-09T19:18:42.408Z,4.12
2022-11-09T19:20:44.030Z,4.12
2022-11-09T19:24:47.219Z,4.12
2022-11-09T19:26:48.944Z,4.12
2022-11-09T19:28:50.432Z,4.12
2022-11-09T19:30:51.662Z,4.12
2022-11-09T19:34:54.254Z,4.12
2022-11-09T19:36:55.240Z,4.12
2022-11-09T19:38:56.402Z,4.12
2022-11-09T19:40:58.199Z,4.11
2022-11-09T19:45:00.610Z,4.12
2022-11-09T19:47:01.488Z,4.11
2022-11-09T19:49:02.492Z,4.12
2022-11-09T19:51:03.585Z,4.11
2022-11-09T19:53:05.230Z,4.11
2022-11-09T19:55:07.106Z,4.11
2022-11-09T19:57:08.905Z,4.12
2022-11-09T20:01:12.075Z,4.11
2022-11-09T20:03:13.225Z,4.11
2022-11-09T20:05:14.179Z,4.11
2022-11-09T20:07:15.333Z,4.11
2022-11-09T20:09:16.677Z,4.11
2022-11-09T20:11:17.801Z,4.11
2022-11-09T20:13:19.036Z,4.11
2022-11-09T20:17:21.625Z,4.11
2022-11-09T20:19:22.767Z,4.11
2022-11-09T20:21:24.789Z,4.11
2022-11-09T20:23:26.212Z,4.11
2022-11-09T20:25:27.418Z,4.11
2022-11-09T20:27:31.159Z,4.11
2022-11-09T20:29:30.355Z,4.11
2022-11-09T20:33:32.994Z,4.11
2022-11-09T20:35:34.551Z,4.11
2022-11-09T20:37:35.529Z,4.11
2022-11-09T20:39:36.777Z,4.11
2022-11-09T20:43:39.587Z,4.1
2022-11-09T20:45:41.247Z,4.1
2022-11-09T20:48:04.954Z,4.1
2022-11-09T20:49:43.812Z,4.1
2022-11-09T20:51:45.248Z,4.1
2022-11-09T20:53:47.153Z,4.1
2022-11-09T20:55:48.213Z,4.1
2022-11-09T20:56:32.079Z,4.1
2022-11-09T20:58:33.346Z,4.1
2022-11-09T21:00:34.555Z,4.1
2022-11-09T21:02:36.400Z,4.1
2022-11-09T21:04:37.859Z,4.1
2022-11-09T21:06:39.422Z,4.1
2022-11-09T21:10:42.802Z,4.1
2022-11-09T21:12:52.886Z,4.1
2022-11-09T21:14:45.013Z,4.1
2022-11-09T21:16:46.501Z,4.1
2022-11-09T21:20:48.949Z,4.1
2022-11-09T21:22:50.181Z,4.1
2022-11-09T21:24:51.948Z,4.1
2022-11-09T21:26:53.490Z,4.1
2022-11-09T21:28:54.539Z,4.1
2022-11-09T21:30:56.301Z,4.1
2022-11-09T21:32:57.645Z,4.1
2022-11-09T21:37:01.303Z,4.1
2022-11-09T21:39:02.214Z,4.1
2022-11-09T21:43:05.373Z,4.09
2022-11-09T21:45:06.351Z,4.1
2022-11-09T21:47:07.815Z,4.1
2022-11-09T21:49:09.203Z,4.1
2022-11-09T21:53:11.528Z,4.09
2022-11-09T21:55:12.743Z,4.1
2022-11-09T21:57:14.603Z,4.1
2022-11-09T21:59:15.699Z,4.09
2022-11-09T22:03:18.581Z,4.09
2022-11-09T22:05:22.890Z,4.09
2022-11-09T22:09:21.648Z,4.09
2022-11-09T22:11:22.990Z,4.09
2022-11-09T22:13:24.190Z,4.09
2022-11-09T22:15:25.937Z,4.09
2022-11-09T22:19:28.637Z,4.09
2022-11-09T22:21:30.463Z,4.09
2022-11-09T22:23:32.142Z,4.09
2022-11-09T22:25:33.138Z,4.09
2022-11-09T22:27:34.353Z,4.09
2022-11-09T22:29:36.127Z,4.08
2022-11-09T22:31:37.609Z,4.09
2022-11-09T22:35:40.359Z,4.09
2022-11-09T22:37:41.431Z,4.09
2022-11-09T22:39:46.941Z,4.08
2022-11-09T22:41:44.463Z,4.08
2022-11-09T22:43:45.533Z,4.08
2022-11-09T22:45:47.393Z,4.08
2022-11-09T22:47:49.117Z,4.08
2022-11-09T22:51:51.660Z,4.08
2022-11-09T22:53:52.716Z,4.08
2022-11-09T22:55:53.905Z,4.08
2022-11-09T22:57:55.647Z,4.08
2022-11-09T23:01:58.300Z,4.08
2022-11-09T23:03:59.870Z,4.08
2022-11-09T23:08:02.068Z,4.08
2022-11-09T23:10:02.993Z,4.08
2022-11-09T23:12:04.066Z,4.08
2022-11-09T23:14:05.694Z,4.08
2022-11-09T23:18:08.109Z,4.08
2022-11-09T23:20:09.148Z,4.08
2022-11-09T23:22:10.353Z,4.08
2022-11-09T23:24:12.219Z,4.08
2022-11-09T23:26:13.382Z,4.08
2022-11-09T23:28:14.573Z,4.08
2022-11-09T23:30:16.229Z,4.08
2022-11-09T23:34:19.288Z,4.08
2022-11-09T23:36:20.390Z,4.08
2022-11-09T23:38:21.933Z,4.08
2022-11-09T23:40:23.160Z,4.08
2022-11-09T23:44:25.792Z,4.08
2022-11-09T23:46:27.067Z,4.08
2022-11-09T23:48:28.220Z,4.08
2022-11-09T23:50:29.921Z,4.08
2022-11-09T23:52:31.647Z,4.08
2022-11-09T23:54:32.866Z,4.08
2022-11-09T23:56:34.056Z,4.07
